createdAt,value
2018-12-30T00:04:19.432Z,100597.33
2018-12-30T00:09:23.500Z,100608.33
2018-12-30T00:14:27.356Z,100586.12
2018-12-30T00:19:31.280Z,100589.16
2018-12-30T00:24:35.070Z,100586.52
2018-12-30T00:29:38.832Z,100586.70
2018-12-30T00:34:42.747Z,100578.22
2018-12-30T00:39:46.500Z,100580.66
2018-12-30T00:44:50.262Z,100575.58
2018-12-30T00:49:54.014Z,100581.89
2018-12-30T00:54:57.833Z,100589.00
2018-12-30T01:00:01.967Z,100583.75
2018-12-30T01:05:06.496Z,100586.12
2018-12-30T01:10:10.227Z,100594.02
2018-12-30T01:15:14.079Z,100611.54
2018-12-30T01:20:17.812Z,100597.66
2018-12-30T01:25:21.638Z,100616.67
2018-12-30T01:30:25.366Z,100606.77
2018-12-30T01:35:29.130Z,100600.75
2018-12-30T01:40:32.971Z,100593.46
2018-12-30T01:45:36.720Z,100605.53
2018-12-30T01:50:40.592Z,100599.63
2018-12-30T01:55:44.738Z,100585.38
2018-12-30T02:00:48.601Z,100595.83
2018-12-30T02:05:52.843Z,100586.53
2018-12-30T02:10:56.575Z,100587.36
2018-12-30T02:16:00.337Z,100593.52
2018-12-30T02:21:04.184Z,100593.17
2018-12-30T02:26:07.922Z,100576.82
2018-12-30T02:31:11.783Z,100591.06
2018-12-30T02:36:15.602Z,100592.14
2018-12-30T02:41:19.506Z,100592.79
2018-12-30T02:46:23.267Z,100582.99
2018-12-30T02:51:27.136Z,100575.39
2018-12-30T02:56:30.970Z,100587.83
2018-12-30T03:01:34.731Z,100573.04
2018-12-30T03:06:38.513Z,100575.40
2018-12-30T03:11:42.449Z,100579.05
2018-12-30T03:16:46.184Z,100575.09
2018-12-30T03:21:50.106Z,100585.69
2018-12-30T03:26:53.853Z,100570.43
2018-12-30T03:31:57.604Z,100581.31
2018-12-30T03:37:01.371Z,100575.39
2018-12-30T03:42:05.265Z,100582.96
2018-12-30T03:47:09.170Z,100574.14
2018-12-30T03:52:13.150Z,100582.53
2018-12-30T03:57:16.975Z,100581.70
2018-12-30T04:02:21.029Z,100587.92
2018-12-30T04:07:24.931Z,100597.38
2018-12-30T04:12:28.923Z,100588.38
2018-12-30T04:17:33.022Z,100604.86
2018-12-30T04:22:36.998Z,100615.58
2018-12-30T04:27:40.961Z,100608.16
2018-12-30T04:32:45.040Z,100620.08
2018-12-30T04:37:48.818Z,100629.11
2018-12-30T04:42:52.979Z,100660.72
2018-12-30T04:47:56.767Z,100652.41
2018-12-30T04:53:00.789Z,100681.39
2018-12-30T04:58:04.773Z,100685.83
2018-12-30T05:03:08.536Z,100707.56
2018-12-30T05:08:12.507Z,100703.66
2018-12-30T05:13:16.389Z,100723.41
2018-12-30T05:18:20.281Z,100725.83
2018-12-30T05:23:24.523Z,100742.13
2018-12-30T05:28:28.417Z,100764.10
2018-12-30T05:33:32.478Z,100772.00
2018-12-30T05:38:36.398Z,100795.37
2018-12-30T05:43:40.357Z,100802.86
2018-12-30T05:48:44.452Z,100816.59
2018-12-30T05:53:48.457Z,100833.08
2018-12-30T05:58:52.395Z,100838.21
2018-12-30T06:03:56.309Z,100867.10
2018-12-30T06:09:00.376Z,100857.53
2018-12-30T06:14:04.213Z,100885.85
2018-12-30T06:19:08.165Z,100866.54
2018-12-30T06:24:12.236Z,100884.44
2018-12-30T06:29:16.097Z,100896.88
2018-12-30T06:34:20.074Z,100899.39
2018-12-30T06:39:24.051Z,100922.00
2018-12-30T06:44:28.086Z,100926.16
2018-12-30T06:49:32.214Z,100944.98
2018-12-30T06:54:36.168Z,100952.43
2018-12-30T06:59:40.356Z,100955.46
2018-12-30T07:04:44.323Z,100983.48
2018-12-30T07:09:48.234Z,100984.11
2018-12-30T07:14:52.373Z,101006.66
2018-12-30T07:19:56.383Z,101008.95
2018-12-30T07:25:00.243Z,101030.88
2018-12-30T07:30:04.400Z,101048.50
2018-12-30T07:35:08.212Z,101056.44
2018-12-30T07:40:12.026Z,101060.28
2018-12-30T07:45:15.955Z,101053.34
2018-12-30T07:50:19.829Z,101067.89
2018-12-30T07:55:23.966Z,101091.20
2018-12-30T08:00:28.053Z,101100.98
2018-12-30T08:05:31.957Z,101113.84
2018-12-30T08:10:35.708Z,101110.23
2018-12-30T08:15:39.469Z,101115.30
2018-12-30T08:20:43.337Z,101129.84
2018-12-30T08:25:47.115Z,101133.95
2018-12-30T08:30:50.861Z,101146.14
2018-12-30T08:35:54.729Z,101155.49
2018-12-30T08:40:58.504Z,101170.30
2018-12-30T08:46:02.322Z,101182.11
2018-12-30T08:51:06.146Z,101197.98
2018-12-30T08:56:09.912Z,101196.91
2018-12-30T09:01:13.874Z,101212.23
2018-12-30T09:06:17.797Z,101217.95
2018-12-30T09:11:21.649Z,101221.38
2018-12-30T09:16:25.383Z,101242.91
2018-12-30T09:21:29.124Z,101245.52
2018-12-30T09:26:32.858Z,101247.34
2018-12-30T09:31:36.611Z,101259.65
2018-12-30T09:36:40.354Z,101264.55
2018-12-30T09:41:44.168Z,101253.06
2018-12-30T09:46:47.915Z,101253.59
2018-12-30T09:51:51.681Z,101268.41
2018-12-30T09:56:55.443Z,101262.39
2018-12-30T10:01:59.297Z,101262.39
2018-12-30T10:07:03.035Z,101272.75
2018-12-30T10:12:06.778Z,101276.22
2018-12-30T10:17:10.549Z,101266.98
2018-12-30T10:22:14.398Z,101282.53
2018-12-30T10:27:18.225Z,101278.91
2018-12-30T10:32:22.036Z,101292.20
2018-12-30T10:37:25.895Z,101283.95
2018-12-30T10:42:29.681Z,101288.89
2018-12-30T10:47:33.548Z,101298.47
2018-12-30T10:52:37.416Z,101294.26
2018-12-30T10:57:41.180Z,101296.88
2018-12-30T11:02:44.952Z,101300.64
2018-12-30T11:07:48.710Z,101296.28
2018-12-30T11:12:52.680Z,101296.56
2018-12-30T11:17:56.497Z,101301.57
2018-12-30T11:23:00.327Z,101295.81
2018-12-30T11:28:04.255Z,101291.77
2018-12-30T11:33:08.038Z,101307.55
2018-12-30T11:38:12.039Z,101307.87
2018-12-30T11:43:15.960Z,101294.81
2018-12-30T11:48:19.746Z,101293.72
2018-12-30T11:53:23.531Z,101289.33
2018-12-30T11:58:27.585Z,101292.23
2018-12-30T12:03:31.458Z,101289.02
2018-12-30T12:08:35.339Z,101284.42
2018-12-30T12:13:39.201Z,101291.02
2018-12-30T12:18:42.948Z,101299.23
2018-12-30T12:23:46.724Z,101323.62
2018-12-30T12:28:50.809Z,101311.08
2018-12-30T12:33:54.640Z,101310.08
2018-12-30T12:38:58.383Z,101315.80
2018-12-30T12:44:02.218Z,101315.51
2018-12-30T12:49:06.046Z,101313.90
2018-12-30T12:54:09.829Z,101299.84
2018-12-30T12:59:13.609Z,101309.94
2018-12-30T13:04:17.520Z,101312.41
2018-12-30T13:09:21.397Z,101323.80
2018-12-30T13:14:25.223Z,101331.44
2018-12-30T13:19:29.007Z,101328.74
2018-12-30T13:24:39.677Z,101322.14
2018-12-30T13:29:38.420Z,101329.29
2018-12-30T13:34:42.336Z,101331.38
2018-12-30T13:39:46.148Z,101331.79
2018-12-30T13:44:50.043Z,101339.39
2018-12-30T13:49:53.898Z,101345.71
2018-12-30T13:54:57.710Z,101348.13
2018-12-30T14:00:02.516Z,101352.02
2018-12-30T14:05:06.470Z,101358.34
2018-12-30T14:10:10.388Z,101371.06
2018-12-30T14:15:14.987Z,101360.23
2018-12-30T14:20:18.708Z,101362.25
2018-12-30T14:25:22.521Z,101388.89
2018-12-30T14:30:26.267Z,101381.57
2018-12-30T14:35:30.094Z,101392.77
2018-12-30T14:40:33.991Z,101386.56
2018-12-30T14:45:37.715Z,101388.37
2018-12-30T14:50:41.598Z,101386.66
2018-12-30T14:55:45.341Z,101399.86
2018-12-30T15:00:49.270Z,101404.42
2018-12-30T15:05:54.788Z,101407.98
2018-12-30T15:10:58.656Z,101403.28
2018-12-30T15:16:02.383Z,101404.80
2018-12-30T15:21:06.329Z,101388.52
2018-12-30T15:26:10.060Z,101378.73
2018-12-30T15:31:13.815Z,101376.81
2018-12-30T15:36:17.646Z,101376.58
2018-12-30T15:41:21.401Z,101386.25
2018-12-30T15:46:25.141Z,101400.78
2018-12-30T15:51:28.948Z,101403.83
2018-12-30T15:56:32.700Z,101380.77
2018-12-30T16:01:36.470Z,101372.30
2018-12-30T16:06:40.247Z,101381.03
2018-12-30T16:11:44.084Z,101404.61
2018-12-30T16:16:47.950Z,101399.61
2018-12-30T16:21:51.720Z,101392.72
2018-12-30T16:26:55.475Z,101416.63
2018-12-30T16:31:59.214Z,101444.38
2018-12-30T16:37:03.017Z,101448.69
2018-12-30T16:42:06.745Z,101471.63
2018-12-30T16:47:10.587Z,101479.56
2018-12-30T16:52:14.330Z,101489.29
2018-12-30T16:57:18.178Z,101479.01
2018-12-30T17:02:22.014Z,101476.71
2018-12-30T17:07:25.800Z,101463.69
2018-12-30T17:12:29.548Z,101459.45
2018-12-30T17:17:33.337Z,101474.12
2018-12-30T17:22:37.075Z,101490.11
2018-12-30T17:27:40.843Z,101483.27
2018-12-30T17:32:44.588Z,101497.55
2018-12-30T17:37:48.385Z,101491.98
2018-12-30T17:42:52.175Z,101502.30
2018-12-30T17:47:55.938Z,101520.69
2018-12-30T17:52:59.775Z,101529.25
2018-12-30T17:58:03.518Z,101508.59
2018-12-30T18:03:07.271Z,101522.75
2018-12-30T18:08:11.025Z,101531.92
2018-12-30T18:13:14.791Z,101526.64
2018-12-30T18:18:18.606Z,101538.39
2018-12-30T18:23:22.371Z,101558.34
2018-12-30T18:28:26.258Z,101548.02
2018-12-30T18:33:30.124Z,101548.27
2018-12-30T18:38:33.922Z,101540.45
2018-12-30T18:43:37.655Z,101547.98
2018-12-30T18:48:41.487Z,101545.65
2018-12-30T18:53:45.304Z,101541.07
2018-12-30T18:58:49.141Z,101541.20
2018-12-30T19:03:53.019Z,101547.15
2018-12-30T19:08:56.801Z,101547.15
2018-12-30T19:14:00.590Z,101545.17
2018-12-30T19:19:04.485Z,101554.00
2018-12-30T19:24:08.316Z,101564.80
2018-12-30T19:29:12.128Z,101559.34
2018-12-30T19:34:15.977Z,101563.45
2018-12-30T19:39:19.877Z,101565.64
2018-12-30T19:44:23.631Z,101567.41
2018-12-30T19:49:27.464Z,101569.84
2018-12-30T19:54:31.223Z,101560.05
2018-12-30T19:59:35.109Z,101560.27
2018-12-30T20:04:40.836Z,101570.02
2018-12-30T20:09:44.601Z,101566.86
2018-12-30T20:14:48.387Z,101567.78
2018-12-30T20:19:52.175Z,101566.91
2018-12-30T20:24:56.020Z,101574.97
2018-12-30T20:30:03.172Z,101590.72
2018-12-30T20:35:07.205Z,101575.72
2018-12-30T20:40:11.136Z,101583.13
2018-12-30T20:45:14.905Z,101581.67
2018-12-30T20:50:18.674Z,101580.95
2018-12-30T20:55:22.434Z,101579.84
2018-12-30T21:00:26.280Z,101576.70
2018-12-30T21:05:30.067Z,101587.14
2018-12-30T21:10:33.851Z,101574.73
2018-12-30T21:15:37.666Z,101582.19
2018-12-30T21:20:41.462Z,101573.84
2018-12-30T21:25:45.227Z,101568.78
2018-12-30T21:30:48.962Z,101570.15
2018-12-30T21:35:52.741Z,101563.36
2018-12-30T21:40:59.615Z,101562.52
2018-12-30T21:46:03.354Z,101564.30
2018-12-30T21:51:07.177Z,101562.48
2018-12-30T21:56:10.964Z,101569.16
2018-12-30T22:01:14.904Z,101583.80
2018-12-30T22:06:18.738Z,101583.19
2018-12-30T22:11:22.642Z,101590.80
2018-12-30T22:16:26.486Z,101596.81
2018-12-30T22:21:30.364Z,101607.23
2018-12-30T22:26:34.250Z,101617.91
2018-12-30T22:31:38.249Z,101618.86
2018-12-30T22:36:42.073Z,101623.10
2018-12-30T22:41:45.932Z,101623.63
2018-12-30T22:46:49.826Z,101611.42
2018-12-30T22:51:53.683Z,101614.75
2018-12-30T22:56:57.608Z,101611.53
2018-12-30T23:02:01.712Z,101611.03
2018-12-30T23:07:05.644Z,101613.43
2018-12-30T23:12:09.507Z,101609.75
2018-12-30T23:17:13.389Z,101607.30
2018-12-30T23:22:17.191Z,101616.67
2018-12-30T23:27:21.059Z,101629.52
2018-12-30T23:32:24.916Z,101632.50
2018-12-30T23:37:28.747Z,101627.12
2018-12-30T23:42:32.498Z,101619.08
2018-12-30T23:47:36.268Z,101623.62
2018-12-30T23:52:40.090Z,101619.13
2018-12-30T23:57:43.833Z,101619.03
